createdAt,value
2023-02-15T00:00:44.073Z,13.63
2023-02-15T00:05:46.763Z,17.13
2023-02-15T00:10:49.463Z,11.55
2023-02-15T00:15:52.170Z,9.13
2023-02-15T00:20:54.892Z,18.70
2023-02-15T00:26:13.962Z,14.80
2023-02-15T00:31:19.108Z,14.30
2023-02-15T00:36:21.905Z,15.77
2023-02-15T00:41:25.106Z,17.60
2023-02-15T00:46:27.764Z,16.85
2023-02-15T00:51:30.900Z,15.95
2023-02-15T00:56:33.749Z,16.08
2023-02-15T01:01:36.591Z,20.63
2023-02-15T01:06:39.413Z,16.73
2023-02-15T01:11:42.220Z,17.30
2023-02-15T01:16:45.015Z,16.88
2023-02-15T01:21:47.798Z,14.95
2023-02-15T01:26:50.700Z,17.05
2023-02-15T01:31:53.580Z,15.60
2023-02-15T01:36:56.325Z,17.33
2023-02-15T01:41:59.125Z,18.77
2023-02-15T01:47:01.809Z,18.38
2023-02-15T01:52:04.813Z,15.43
2023-02-15T01:57:12.148Z,18.20
2023-02-15T02:02:16.470Z,21.40
2023-02-15T02:07:21.553Z,20.55
2023-02-15T02:12:25.399Z,24.60
2023-02-15T02:17:43.843Z,19.45
2023-02-15T02:23:25.411Z,25.45
2023-02-15T02:28:43.560Z,15.07
2023-02-15T02:34:00.982Z,18.40
2023-02-15T02:39:18.791Z,24.60
2023-02-15T02:44:28.421Z,24.73
2023-02-15T02:49:43.285Z,23.58
2023-02-15T02:54:46.480Z,18.95
2023-02-15T02:59:50.345Z,24.25
2023-02-15T03:05:04.716Z,23.40
2023-02-15T03:10:10.096Z,26.60
2023-02-15T03:15:17.974Z,32.67
2023-02-15T03:20:31.132Z,23.90
2023-02-15T03:26:00.131Z,28.13
2023-02-15T03:31:07.558Z,30.02
2023-02-15T03:36:20.367Z,28.50
2023-02-15T03:41:26.297Z,26.35
2023-02-15T03:46:31.948Z,29.83
2023-02-15T03:51:39.264Z,34.65
2023-02-15T03:56:43.490Z,29.10
2023-02-15T04:02:06.121Z,27.80
2023-02-15T04:07:09.841Z,30.55
2023-02-15T04:12:12.582Z,7.75
2023-02-15T04:17:15.209Z,23.35
2023-02-15T04:22:36.248Z,29.10
2023-02-15T04:27:40.123Z,36.73
2023-02-15T04:32:43.172Z,29.20
2023-02-15T04:37:46.103Z,28.92
2023-02-15T04:42:50.468Z,27.23
2023-02-15T04:47:53.586Z,31.40
2023-02-15T04:52:56.319Z,35.13
2023-02-15T04:57:59.071Z,35.92
2023-02-15T05:03:01.746Z,31.23
2023-02-15T05:08:04.540Z,34.20
2023-02-15T05:13:07.276Z,33.15
2023-02-15T05:18:10.391Z,35.50
2023-02-15T05:23:13.160Z,40.55
2023-02-15T05:28:22.449Z,29.38
2023-02-15T05:33:25.222Z,32.80
2023-02-15T05:58:42.416Z,40.13
2023-02-15T06:03:46.223Z,51.38
2023-02-15T06:08:49.108Z,39.55
2023-02-15T06:13:51.886Z,45.42
2023-02-15T06:18:54.552Z,40.83
2023-02-15T06:23:57.264Z,35.63
2023-02-15T06:28:59.944Z,37.30
2023-02-15T06:34:02.842Z,34.00
2023-02-15T06:39:05.839Z,41.60
2023-02-15T06:44:08.858Z,44.08
2023-02-15T06:49:11.612Z,48.50
2023-02-15T06:54:14.453Z,40.10
2023-02-15T06:59:17.486Z,33.63
2023-02-15T07:04:20.216Z,45.13
2023-02-15T07:09:23.712Z,43.35
2023-02-15T07:14:28.686Z,38.35
2023-02-15T07:19:31.836Z,41.15
2023-02-15T07:24:34.684Z,40.08
2023-02-15T07:29:37.334Z,25.27
2023-02-15T07:34:40.048Z,37.77
2023-02-15T07:39:42.770Z,40.57
2023-02-15T07:44:45.495Z,37.20
2023-02-15T07:49:50.630Z,34.57
2023-02-15T07:54:53.324Z,42.92
2023-02-15T07:59:56.260Z,36.40
2023-02-15T08:04:58.976Z,27.80
2023-02-15T08:10:01.802Z,26.13
2023-02-15T08:15:06.097Z,35.25
2023-02-15T08:20:09.866Z,33.22
2023-02-15T08:30:15.902Z,28.48
2023-02-15T08:35:18.606Z,17.88
2023-02-15T08:40:21.474Z,26.67
2023-02-15T08:45:26.752Z,25.77
2023-02-15T08:50:29.640Z,36.80
2023-02-15T08:55:32.297Z,36.00
2023-02-15T09:00:35.014Z,56.13
2023-02-15T09:05:38.226Z,46.50
2023-02-15T09:10:42.945Z,56.40
2023-02-15T09:15:45.926Z,48.20
2023-02-15T09:20:48.666Z,41.80
2023-02-15T09:25:51.366Z,39.85
2023-02-15T09:30:54.654Z,29.88
2023-02-15T09:35:58.355Z,38.90
2023-02-15T09:41:30.097Z,33.78
2023-02-15T09:47:07.066Z,27.27
2023-02-15T09:52:40.677Z,29.98
2023-02-15T09:58:10.789Z,26.70
2023-02-15T10:03:25.650Z,28.23
2023-02-15T10:08:43.619Z,27.15
2023-02-15T10:14:08.162Z,27.95
2023-02-15T10:19:28.733Z,64.78
2023-02-15T10:24:48.743Z,62.10
2023-02-15T10:30:11.336Z,80.53
2023-02-15T10:35:46.455Z,101.47
2023-02-15T10:41:14.852Z,56.70
2023-02-15T10:46:31.381Z,38.55
2023-02-15T10:51:43.064Z,29.48
2023-02-15T10:57:23.291Z,30.30
2023-02-15T11:02:35.763Z,30.90
2023-02-15T11:07:44.791Z,22.10
2023-02-15T11:12:54.999Z,22.25
2023-02-15T11:18:23.389Z,22.38
2023-02-15T11:23:27.655Z,23.73
2023-02-15T11:28:38.794Z,20.20
2023-02-15T11:33:46.074Z,20.27
2023-02-15T11:38:50.958Z,20.50
2023-02-15T11:44:05.093Z,22.15
2023-02-15T11:49:33.636Z,23.90
2023-02-15T11:54:38.050Z,20.92
2023-02-15T11:59:43.815Z,21.88
2023-02-15T12:04:51.451Z,21.95
2023-02-15T12:10:26.434Z,25.63
2023-02-15T12:15:33.628Z,32.13
2023-02-15T12:20:43.977Z,30.67
2023-02-15T12:25:57.216Z,30.63
2023-02-15T12:31:00.376Z,58.65
2023-02-15T12:36:11.418Z,54.60
2023-02-15T12:41:25.313Z,69.35
2023-02-15T12:46:28.437Z,79.57
2023-02-15T12:51:31.158Z,57.63
2023-02-15T12:56:33.809Z,62.72
2023-02-15T13:01:37.587Z,45.43
2023-02-15T13:06:49.411Z,53.13
2023-02-15T13:11:52.102Z,43.35
2023-02-15T13:16:59.596Z,39.40
2023-02-15T13:22:07.384Z,41.55
2023-02-15T13:27:16.398Z,41.55
2023-02-15T13:32:38.468Z,32.85
2023-02-15T13:37:53.716Z,44.70
2023-02-15T13:43:00.438Z,47.05
2023-02-15T13:48:09.912Z,56.00
2023-02-15T13:53:38.534Z,60.85
2023-02-15T13:59:20.136Z,60.67
2023-02-15T14:04:43.528Z,67.93
2023-02-15T14:10:08.265Z,59.47
2023-02-15T14:15:20.022Z,60.65
2023-02-15T14:20:45.381Z,57.92
2023-02-15T14:25:53.183Z,69.47
2023-02-15T14:30:56.293Z,65.93
2023-02-15T14:36:00.559Z,76.55
2023-02-15T14:41:19.007Z,79.85
2023-02-15T14:46:36.502Z,84.55
2023-02-15T14:51:46.937Z,79.60
2023-02-15T14:57:11.226Z,79.93
2023-02-15T15:02:19.341Z,80.95
2023-02-15T15:07:40.356Z,108.90
2023-02-15T15:12:48.260Z,104.03
2023-02-15T15:17:58.789Z,115.25
2023-02-15T15:23:16.834Z,109.63
2023-02-15T15:28:34.614Z,105.25
2023-02-15T15:34:16.422Z,106.30
2023-02-15T15:39:43.600Z,79.75
2023-02-15T15:45:21.044Z,96.30
2023-02-15T15:50:23.843Z,95.43
2023-02-15T15:55:29.210Z,99.25
2023-02-15T16:00:38.022Z,93.03
2023-02-15T16:05:40.777Z,95.93
2023-02-15T16:10:43.665Z,92.18
2023-02-15T16:15:51.143Z,100.50
2023-02-15T16:20:59.094Z,100.45
2023-02-15T16:26:26.458Z,93.90
2023-02-15T16:31:29.198Z,77.95
2023-02-15T16:36:32.075Z,82.13
2023-02-15T16:41:35.065Z,63.80
2023-02-15T16:46:47.277Z,69.82
2023-02-15T16:52:10.382Z,75.45
2023-02-15T17:02:53.226Z,71.30
2023-02-15T17:07:53.435Z,57.47
2023-02-15T17:12:59.052Z,60.50
2023-02-15T17:18:06.214Z,72.35
2023-02-15T17:23:36.129Z,79.22
2023-02-15T17:28:38.864Z,73.10
2023-02-15T17:39:23.535Z,57.13
2023-02-15T17:49:35.145Z,66.15
2023-02-15T17:54:56.039Z,58.00
2023-02-15T18:00:16.945Z,56.63
2023-02-15T18:05:38.588Z,57.97
2023-02-15T18:10:59.786Z,55.37
2023-02-15T18:16:03.277Z,49.97
2023-02-15T18:21:11.016Z,52.58
2023-02-15T18:26:20.807Z,56.70
2023-02-15T18:31:24.735Z,54.53
2023-02-15T18:36:38.098Z,57.30
2023-02-15T18:41:40.962Z,61.13
2023-02-15T18:46:43.871Z,65.18
2023-02-15T19:02:00.827Z,64.10
2023-02-15T19:07:03.555Z,56.03
2023-02-15T19:22:29.643Z,36.88
2023-02-15T19:27:38.109Z,39.77
2023-02-15T19:32:40.743Z,39.22
2023-02-15T19:42:47.364Z,48.20
2023-02-15T19:47:50.354Z,39.38
2023-02-15T19:52:53.560Z,40.22
2023-02-15T19:57:58.416Z,35.80
2023-02-15T20:03:01.738Z,30.75
2023-02-15T20:08:08.743Z,25.80
2023-02-15T20:13:21.083Z,34.13
2023-02-15T20:23:31.944Z,32.30
2023-02-15T20:28:34.680Z,26.95
2023-02-15T20:33:37.266Z,32.15
2023-02-15T20:38:40.181Z,28.73
2023-02-15T20:43:43.028Z,31.13
2023-02-15T20:48:45.949Z,38.47
2023-02-15T20:53:49.246Z,33.35
2023-02-15T20:58:52.902Z,32.55
2023-02-15T21:03:55.704Z,37.75
2023-02-15T21:08:58.440Z,29.38
2023-02-15T21:14:01.180Z,37.25
2023-02-15T21:19:15.617Z,31.02
2023-02-15T21:24:27.081Z,35.15
2023-02-15T21:29:30.746Z,23.63
2023-02-15T21:34:33.425Z,27.98
2023-02-15T21:39:36.669Z,30.27
2023-02-15T21:44:58.204Z,26.00
2023-02-15T21:50:20.902Z,28.65
2023-02-15T21:55:23.604Z,28.73
2023-02-15T22:00:28.022Z,41.00
2023-02-15T22:05:33.527Z,35.25
2023-02-15T22:10:36.304Z,39.92
2023-02-15T22:15:39.203Z,29.10
2023-02-15T22:20:41.779Z,30.38
2023-02-15T22:25:47.255Z,27.05
2023-02-15T22:30:49.904Z,31.85
2023-02-15T22:35:53.000Z,30.35
2023-02-15T22:40:57.881Z,24.33
2023-02-15T22:46:04.016Z,31.30
2023-02-15T22:51:06.755Z,24.42
2023-02-15T22:56:17.406Z,19.08
2023-02-15T23:01:38.777Z,26.27
2023-02-15T23:11:46.204Z,23.77
2023-02-15T23:16:49.213Z,19.63
2023-02-15T23:21:52.011Z,20.08
2023-02-15T23:27:15.874Z,20.90
2023-02-15T23:32:20.673Z,22.80
2023-02-15T23:37:23.344Z,18.85
2023-02-15T23:42:29.507Z,22.30
2023-02-15T23:47:53.015Z,21.50
2023-02-15T23:52:56.546Z,22.83
2023-02-15T23:57:59.245Z,24.58
